sensor_id;sensor_type;location;lat;lon;timestamp;pressure;altitude;pressure_sealevel;temperature;humidity
79534;BME280;68982;52.160;6.736;2023-07-02T00:01:02;100419.63;;;16.29;77.35
79534;BME280;68982;52.160;6.736;2023-07-02T00:03:28;100406.97;;;16.23;77.39
79534;BME280;68982;52.160;6.736;2023-07-02T00:05:54;100407.69;;;16.30;77.56
79534;BME280;68982;52.160;6.736;2023-07-02T00:08:22;100404.97;;;16.30;76.92
79534;BME280;68982;52.160;6.736;2023-07-02T00:10:48;100396.22;;;16.28;77.53
79534;BME280;68982;52.160;6.736;2023-07-02T00:13:16;100394.31;;;16.28;77.20
79534;BME280;68982;52.160;6.736;2023-07-02T00:15:42;100391.72;;;16.22;77.99
79534;BME280;68982;52.160;6.736;2023-07-02T00:18:07;100399.88;;;16.22;77.56
79534;BME280;68982;52.160;6.736;2023-07-02T00:20:33;100391.34;;;16.18;77.79
79534;BME280;68982;52.160;6.736;2023-07-02T00:23:05;100392.06;;;16.25;77.95
79534;BME280;68982;52.160;6.736;2023-07-02T00:25:32;100392.91;;;16.26;78.34
79534;BME280;68982;52.160;6.736;2023-07-02T00:27:58;100393.84;;;16.20;78.33
79534;BME280;68982;52.160;6.736;2023-07-02T00:30:23;100389.47;;;16.30;78.34
79534;BME280;68982;52.160;6.736;2023-07-02T00:32:48;100392.78;;;16.32;77.84
79534;BME280;68982;52.160;6.736;2023-07-02T00:35:14;100378.47;;;16.37;77.87
79534;BME280;68982;52.160;6.736;2023-07-02T00:37:39;100377.41;;;16.14;79.16
79534;BME280;68982;52.160;6.736;2023-07-02T00:40:05;100370.78;;;16.22;79.16
79534;BME280;68982;52.160;6.736;2023-07-02T00:42:31;100373.59;;;16.27;79.34
79534;BME280;68982;52.160;6.736;2023-07-02T00:44:56;100390.78;;;16.28;78.97
79534;BME280;68982;52.160;6.736;2023-07-02T00:47:27;100376.44;;;16.21;79.49
79534;BME280;68982;52.160;6.736;2023-07-02T00:49:53;100370.78;;;16.22;79.73
79534;BME280;68982;52.160;6.736;2023-07-02T00:52:18;100374.91;;;16.25;79.25
79534;BME280;68982;52.160;6.736;2023-07-02T00:54:45;100373.38;;;16.17;80.11
79534;BME280;68982;52.160;6.736;2023-07-02T00:57:10;100385.34;;;16.28;79.55
79534;BME280;68982;52.160;6.736;2023-07-02T00:59:36;100388.75;;;16.23;79.87
79534;BME280;68982;52.160;6.736;2023-07-02T01:02:06;100383.44;;;16.16;79.93
79534;BME280;68982;52.160;6.736;2023-07-02T01:04:31;100387.44;;;16.37;79.22
79534;BME280;68982;52.160;6.736;2023-07-02T01:06:57;100388.06;;;16.28;79.88
79534;BME280;68982;52.160;6.736;2023-07-02T01:09:23;100393.84;;;16.20;80.65
79534;BME280;68982;52.160;6.736;2023-07-02T01:11:54;100397.38;;;16.20;80.96
79534;BME280;68982;52.160;6.736;2023-07-02T01:14:33;100392.91;;;16.26;80.99
79534;BME280;68982;52.160;6.736;2023-07-02T01:17:01;100413.38;;;16.16;82.15
79534;BME280;68982;52.160;6.736;2023-07-02T01:19:45;100437.00;;;16.16;83.08
79534;BME280;68982;52.160;6.736;2023-07-02T01:22:11;100419.09;;;15.85;79.07
79534;BME280;68982;52.160;6.736;2023-07-02T01:24:40;100419.03;;;15.61;82.92
79534;BME280;68982;52.160;6.736;2023-07-02T01:27:06;100421.38;;;15.58;82.16
79534;BME280;68982;52.160;6.736;2023-07-02T01:29:32;100418.34;;;15.36;82.60
79534;BME280;68982;52.160;6.736;2023-07-02T01:31:58;100414.88;;;15.28;82.62
79534;BME280;68982;52.160;6.736;2023-07-02T01:34:23;100428.97;;;15.37;82.29
79534;BME280;68982;52.160;6.736;2023-07-02T01:36:49;100427.44;;;15.11;83.00
79534;BME280;68982;52.160;6.736;2023-07-02T01:39:14;100429.16;;;15.24;83.10
79534;BME280;68982;52.160;6.736;2023-07-02T01:41:50;100427.13;;;15.19;82.57
79534;BME280;68982;52.160;6.736;2023-07-02T01:44:16;100423.69;;;15.12;82.31
79534;BME280;68982;52.160;6.736;2023-07-02T01:46:42;100427.09;;;15.07;82.41
79534;BME280;68982;52.160;6.736;2023-07-02T01:49:07;100421.88;;;15.06;81.76
79534;BME280;68982;52.160;6.736;2023-07-02T01:51:33;100425.63;;;15.05;81.98
79534;BME280;68982;52.160;6.736;2023-07-02T01:53:59;100425.50;;;15.00;83.19
79534;BME280;68982;52.160;6.736;2023-07-02T01:56:25;100435.59;;;15.11;82.15
79534;BME280;68982;52.160;6.736;2023-07-02T01:58:51;100436.50;;;15.23;81.99
79534;BME280;68982;52.160;6.736;2023-07-02T02:01:16;100438.53;;;15.09;82.02
79534;BME280;68982;52.160;6.736;2023-07-02T02:03:42;100434.72;;;14.99;81.70
79534;BME280;68982;52.160;6.736;2023-07-02T02:06:07;100429.19;;;15.05;82.30
79534;BME280;68982;52.160;6.736;2023-07-02T02:08:33;100420.66;;;15.02;82.36
79534;BME280;68982;52.160;6.736;2023-07-02T02:10:59;100430.69;;;15.01;82.63
79534;BME280;68982;52.160;6.736;2023-07-02T02:13:26;100422.78;;;14.81;82.85
79534;BME280;68982;52.160;6.736;2023-07-02T02:15:51;100430.03;;;14.87;83.08
79534;BME280;68982;52.160;6.736;2023-07-02T02:18:16;100434.91;;;14.97;82.12
79534;BME280;68982;52.160;6.736;2023-07-02T02:20:42;100435.88;;;15.03;83.57
79534;BME280;68982;52.160;6.736;2023-07-02T02:23:07;100437.25;;;14.93;83.31
79534;BME280;68982;52.160;6.736;2023-07-02T02:25:32;100435.00;;;14.90;83.28
79534;BME280;68982;52.160;6.736;2023-07-02T02:27:58;100442.94;;;14.92;83.34
79534;BME280;68982;52.160;6.736;2023-07-02T02:30:23;100448.34;;;14.92;83.71
79534;BME280;68982;52.160;6.736;2023-07-02T02:32:49;100457.38;;;15.04;83.90
79534;BME280;68982;52.160;6.736;2023-07-02T02:35:14;100447.09;;;15.25;81.93
79534;BME280;68982;52.160;6.736;2023-07-02T02:37:40;100441.66;;;14.95;84.13
79534;BME280;68982;52.160;6.736;2023-07-02T02:40:07;100449.69;;;14.83;83.34
79534;BME280;68982;52.160;6.736;2023-07-02T02:42:34;100458.28;;;14.98;82.85
79534;BME280;68982;52.160;6.736;2023-07-02T02:44:59;100462.53;;;14.94;83.18
79534;BME280;68982;52.160;6.736;2023-07-02T02:47:25;100461.84;;;14.99;82.96
79534;BME280;68982;52.160;6.736;2023-07-02T02:49:50;100463.34;;;14.95;82.00
79534;BME280;68982;52.160;6.736;2023-07-02T02:52:15;100461.25;;;14.97;81.30
79534;BME280;68982;52.160;6.736;2023-07-02T02:54:41;100460.41;;;14.96;81.34
79534;BME280;68982;52.160;6.736;2023-07-02T02:57:06;100464.72;;;15.04;81.85
79534;BME280;68982;52.160;6.736;2023-07-02T02:59:32;100469.09;;;14.86;81.28
79534;BME280;68982;52.160;6.736;2023-07-02T03:01:57;100465.47;;;14.92;82.01
79534;BME280;68982;52.160;6.736;2023-07-02T03:04:22;100466.75;;;15.08;81.61
79534;BME280;68982;52.160;6.736;2023-07-02T03:06:51;100473.69;;;14.86;82.29
79534;BME280;68982;52.160;6.736;2023-07-02T03:09:18;100472.03;;;15.03;80.67
79534;BME280;68982;52.160;6.736;2023-07-02T03:11:44;100480.63;;;14.82;81.30
79534;BME280;68982;52.160;6.736;2023-07-02T03:14:09;100469.09;;;14.86;81.11
79534;BME280;68982;52.160;6.736;2023-07-02T03:16:35;100480.16;;;14.85;82.70
79534;BME280;68982;52.160;6.736;2023-07-02T03:19:00;100478.59;;;14.77;82.37
79534;BME280;68982;52.160;6.736;2023-07-02T03:21:25;100488.28;;;14.66;82.23
79534;BME280;68982;52.160;6.736;2023-07-02T03:23:51;100487.34;;;14.79;82.54
79534;BME280;68982;52.160;6.736;2023-07-02T03:26:16;100483.53;;;14.80;82.77
79534;BME280;68982;52.160;6.736;2023-07-02T03:28:42;100480.75;;;14.68;83.02
79534;BME280;68982;52.160;6.736;2023-07-02T03:31:07;100501.34;;;14.51;82.53
79534;BME280;68982;52.160;6.736;2023-07-02T03:33:32;100500.78;;;14.42;83.15
79534;BME280;68982;52.160;6.736;2023-07-02T03:35:58;100497.84;;;14.69;83.21
79534;BME280;68982;52.160;6.736;2023-07-02T03:38:23;100491.47;;;14.63;82.56
79534;BME280;68982;52.160;6.736;2023-07-02T03:40:49;100493.25;;;14.44;83.08
79534;BME280;68982;52.160;6.736;2023-07-02T03:43:14;100500.78;;;14.42;83.52
79534;BME280;68982;52.160;6.736;2023-07-02T03:45:40;100499.44;;;14.51;82.70
79534;BME280;68982;52.160;6.736;2023-07-02T03:48:05;100511.13;;;14.59;83.63
79534;BME280;68982;52.160;6.736;2023-07-02T03:50:30;100507.19;;;14.55;82.21
79534;BME280;68982;52.160;6.736;2023-07-02T03:52:56;100512.25;;;14.44;82.48
79534;BME280;68982;52.160;6.736;2023-07-02T03:55:21;100512.31;;;14.38;82.67
79534;BME280;68982;52.160;6.736;2023-07-02T03:57:46;100509.03;;;14.29;83.18
79534;BME280;68982;52.160;6.736;2023-07-02T04:00:12;100509.03;;;14.61;82.41
79534;BME280;68982;52.160;6.736;2023-07-02T04:02:37;100510.41;;;14.38;82.03
79534;BME280;68982;52.160;6.736;2023-07-02T04:05:03;100505.94;;;14.50;82.64
79534;BME280;68982;52.160;6.736;2023-07-02T04:07:29;100507.50;;;14.40;82.86
79534;BME280;68982;52.160;6.736;2023-07-02T04:09:55;100521.81;;;14.47;81.54
79534;BME280;68982;52.160;6.736;2023-07-02T04:12:20;100522.94;;;14.39;81.56
79534;BME280;68982;52.160;6.736;2023-07-02T04:14:45;100525.16;;;14.24;81.12
79534;BME280;68982;52.160;6.736;2023-07-02T04:17:11;100534.56;;;14.46;80.59
79534;BME280;68982;52.160;6.736;2023-07-02T04:19:36;100536.22;;;14.22;81.94
79534;BME280;68982;52.160;6.736;2023-07-02T04:22:02;100525.88;;;14.38;81.18
79534;BME280;68982;52.160;6.736;2023-07-02T04:24:27;100533.59;;;14.41;81.21
79534;BME280;68982;52.160;6.736;2023-07-02T04:26:53;100528.09;;;14.47;80.72
79534;BME280;68982;52.160;6.736;2023-07-02T04:29:18;100537.88;;;14.48;81.44
79534;BME280;68982;52.160;6.736;2023-07-02T04:31:44;100534.31;;;14.55;79.75
79534;BME280;68982;52.160;6.736;2023-07-02T04:34:09;100531.97;;;14.33;80.84
79534;BME280;68982;52.160;6.736;2023-07-02T04:36:34;100537.38;;;14.33;80.64
79534;BME280;68982;52.160;6.736;2023-07-02T04:39:00;100533.19;;;14.37;80.69
79534;BME280;68982;52.160;6.736;2023-07-02T04:41:26;100532.66;;;14.47;80.44
79534;BME280;68982;52.160;6.736;2023-07-02T04:43:51;100533.13;;;14.44;80.25
79534;BME280;68982;52.160;6.736;2023-07-02T04:46:17;100532.06;;;14.45;79.22
79534;BME280;68982;52.160;6.736;2023-07-02T04:48:43;100546.63;;;14.50;79.10
79534;BME280;68982;52.160;6.736;2023-07-02T04:51:08;100545.72;;;14.31;78.79
79534;BME280;68982;52.160;6.736;2023-07-02T04:53:34;100541.34;;;14.62;80.44
79534;BME280;68982;52.160;6.736;2023-07-02T04:55:59;100552.47;;;14.54;78.85
79534;BME280;68982;52.160;6.736;2023-07-02T04:58:24;100551.25;;;14.50;79.28
79534;BME280;68982;52.160;6.736;2023-07-02T05:00:50;100548.38;;;14.70;78.97
79534;BME280;68982;52.160;6.736;2023-07-02T05:03:15;100545.13;;;14.61;78.42
79534;BME280;68982;52.160;6.736;2023-07-02T05:05:41;100541.88;;;14.46;78.16
79534;BME280;68982;52.160;6.736;2023-07-02T05:08:06;100562.72;;;14.52;78.38
79534;BME280;68982;52.160;6.736;2023-07-02T05:10:32;100564.53;;;14.58;78.03
79534;BME280;68982;52.160;6.736;2023-07-02T05:12:57;100563.75;;;14.51;77.75
79534;BME280;68982;52.160;6.736;2023-07-02T05:15:23;100557.88;;;14.61;78.23
79534;BME280;68982;52.160;6.736;2023-07-02T05:17:49;100562.06;;;14.57;76.57
79534;BME280;68982;52.160;6.736;2023-07-02T05:20:15;100570.22;;;14.50;78.31
79534;BME280;68982;52.160;6.736;2023-07-02T05:22:40;100563.13;;;14.49;77.46
79534;BME280;68982;52.160;6.736;2023-07-02T05:25:05;100573.06;;;14.62;76.86
79534;BME280;68982;52.160;6.736;2023-07-02T05:27:31;100563.75;;;14.51;76.42
79534;BME280;68982;52.160;6.736;2023-07-02T05:29:56;100574.03;;;14.42;77.08
79534;BME280;68982;52.160;6.736;2023-07-02T05:32:22;100564.09;;;14.36;77.94
79534;BME280;68982;52.160;6.736;2023-07-02T05:34:47;100570.31;;;14.68;76.72
79534;BME280;68982;52.160;6.736;2023-07-02T05:37:13;100573.03;;;14.68;77.27
79534;BME280;68982;52.160;6.736;2023-07-02T05:39:38;100572.00;;;14.63;77.47
79534;BME280;68982;52.160;6.736;2023-07-02T05:42:04;100573.84;;;14.69;77.40
79534;BME280;68982;52.160;6.736;2023-07-02T05:44:29;100573.63;;;14.70;75.84
79534;BME280;68982;52.160;6.736;2023-07-02T05:46:54;100572.81;;;14.70;75.80
79534;BME280;68982;52.160;6.736;2023-07-02T05:49:20;100570.75;;;14.90;76.31
79534;BME280;68982;52.160;6.736;2023-07-02T05:51:45;100578.66;;;14.92;75.82
79534;BME280;68982;52.160;6.736;2023-07-02T05:54:11;100581.47;;;15.04;75.61
79534;BME280;68982;52.160;6.736;2023-07-02T05:56:36;100591.44;;;15.10;75.02
79534;BME280;68982;52.160;6.736;2023-07-02T05:59:01;100592.78;;;15.01;75.07
79534;BME280;68982;52.160;6.736;2023-07-02T06:01:27;100586.28;;;15.02;75.27
79534;BME280;68982;52.160;6.736;2023-07-02T06:03:52;100595.44;;;15.26;73.58
79534;BME280;68982;52.160;6.736;2023-07-02T06:06:17;100593.69;;;15.31;75.09
79534;BME280;68982;52.160;6.736;2023-07-02T06:08:43;100582.91;;;15.25;72.21
79534;BME280;68982;52.160;6.736;2023-07-02T06:11:10;100593.69;;;15.31;72.05
79534;BME280;68982;52.160;6.736;2023-07-02T06:13:35;100594.16;;;15.28;74.29
79534;BME280;68982;52.160;6.736;2023-07-02T06:16:01;100597.50;;;15.30;71.96
79534;BME280;68982;52.160;6.736;2023-07-02T06:18:26;100602.38;;;15.40;72.60
79534;BME280;68982;52.160;6.736;2023-07-02T06:20:53;100592.13;;;15.42;70.17
79534;BME280;68982;52.160;6.736;2023-07-02T06:23:18;100603.09;;;15.54;71.44
79534;BME280;68982;52.160;6.736;2023-07-02T06:25:43;100607.66;;;15.53;71.13
79534;BME280;68982;52.160;6.736;2023-07-02T06:28:09;100626.00;;;15.58;73.12
79534;BME280;68982;52.160;6.736;2023-07-02T06:30:35;100620.28;;;15.66;71.00
79534;BME280;68982;52.160;6.736;2023-07-02T06:33:00;100619.81;;;15.69;71.31
79534;BME280;68982;52.160;6.736;2023-07-02T06:35:25;100614.31;;;15.76;71.58
79534;BME280;68982;52.160;6.736;2023-07-02T06:37:51;100605.81;;;15.72;72.51
79534;BME280;68982;52.160;6.736;2023-07-02T06:40:16;100614.31;;;15.76;70.27
79534;BME280;68982;52.160;6.736;2023-07-02T06:42:42;100614.84;;;15.85;71.27
79534;BME280;68982;52.160;6.736;2023-07-02T06:45:07;100623.84;;;15.85;67.77
79534;BME280;68982;52.160;6.736;2023-07-02T06:47:33;100619.31;;;15.79;69.01
79534;BME280;68982;52.160;6.736;2023-07-02T06:49:58;100628.59;;;15.71;69.14
79534;BME280;68982;52.160;6.736;2023-07-02T06:52:24;100643.47;;;15.87;70.36
79534;BME280;68982;52.160;6.736;2023-07-02T06:54:50;100640.91;;;15.92;69.86
79534;BME280;68982;52.160;6.736;2023-07-02T06:57:15;100634.84;;;16.09;68.10
79534;BME280;68982;52.160;6.736;2023-07-02T06:59:41;100644.56;;;16.16;68.15
79534;BME280;68982;52.160;6.736;2023-07-02T07:02:06;100649.25;;;16.09;67.20
79534;BME280;68982;52.160;6.736;2023-07-02T07:04:31;100650.94;;;16.10;65.81
79534;BME280;68982;52.160;6.736;2023-07-02T07:06:57;100649.53;;;16.20;67.92
79534;BME280;68982;52.160;6.736;2023-07-02T07:09:22;100651.19;;;16.21;67.26
79534;BME280;68982;52.160;6.736;2023-07-02T07:11:48;100658.09;;;16.23;66.06
79534;BME280;68982;52.160;6.736;2023-07-02T07:14:13;100660.25;;;16.33;66.03
79534;BME280;68982;52.160;6.736;2023-07-02T07:16:39;100657.06;;;16.36;65.04
79534;BME280;68982;52.160;6.736;2023-07-02T07:19:04;100661.75;;;16.59;64.86
79534;BME280;68982;52.160;6.736;2023-07-02T07:21:30;100669.03;;;16.47;64.68
79534;BME280;68982;52.160;6.736;2023-07-02T07:23:55;100669.09;;;16.58;65.09
79534;BME280;68982;52.160;6.736;2023-07-02T07:26:21;100667.09;;;16.66;63.60
79534;BME280;68982;52.160;6.736;2023-07-02T07:28:46;100679.31;;;16.75;63.70
79534;BME280;68982;52.160;6.736;2023-07-02T07:31:12;100673.09;;;16.86;61.97
79534;BME280;68982;52.160;6.736;2023-07-02T07:33:37;100674.72;;;16.87;61.32
79534;BME280;68982;52.160;6.736;2023-07-02T07:36:03;100679.41;;;16.98;61.14
79534;BME280;68982;52.160;6.736;2023-07-02T07:38:29;100676.09;;;17.08;63.09
79534;BME280;68982;52.160;6.736;2023-07-02T07:40:54;100683.88;;;17.05;61.78
79534;BME280;68982;52.160;6.736;2023-07-02T07:43:20;100682.13;;;16.98;62.73
79534;BME280;68982;52.160;6.736;2023-07-02T07:45:45;100690.28;;;16.98;63.55
79534;BME280;68982;52.160;6.736;2023-07-02T07:48:10;100685.78;;;17.04;62.24
79534;BME280;68982;52.160;6.736;2023-07-02T07:50:36;100705.13;;;17.14;62.02
79534;BME280;68982;52.160;6.736;2023-07-02T07:53:01;100694.94;;;17.10;60.47
79534;BME280;68982;52.160;6.736;2023-07-02T07:55:27;100695.88;;;17.15;59.55
79534;BME280;68982;52.160;6.736;2023-07-02T07:57:52;100695.84;;;17.04;58.27
79534;BME280;68982;52.160;6.736;2023-07-02T08:00:18;100699.41;;;17.04;57.97
79534;BME280;68982;52.160;6.736;2023-07-02T08:02:45;100695.09;;;16.85;60.09
79534;BME280;68982;52.160;6.736;2023-07-02T08:05:12;100696.94;;;16.72;60.06
79534;BME280;68982;52.160;6.736;2023-07-02T08:07:39;100698.94;;;16.65;59.24
79534;BME280;68982;52.160;6.736;2023-07-02T08:10:05;100695.81;;;16.80;61.68
79534;BME280;68982;52.160;6.736;2023-07-02T08:12:32;100697.28;;;16.76;60.63
79534;BME280;68982;52.160;6.736;2023-07-02T08:14:58;100687.34;;;16.70;61.47
79534;BME280;68982;52.160;6.736;2023-07-02T08:17:23;100698.69;;;17.09;60.34
79534;BME280;68982;52.160;6.736;2023-07-02T08:19:49;100692.19;;;17.10;59.36
79534;BME280;68982;52.160;6.736;2023-07-02T08:22:14;100698.13;;;17.30;59.57
79534;BME280;68982;52.160;6.736;2023-07-02T08:24:39;100705.13;;;17.26;58.84
79534;BME280;68982;52.160;6.736;2023-07-02T08:27:05;100712.19;;;16.92;58.29
79534;BME280;68982;52.160;6.736;2023-07-02T08:29:31;100710.91;;;16.76;60.68
79534;BME280;68982;52.160;6.736;2023-07-02T08:31:56;100704.41;;;16.77;60.61
79534;BME280;68982;52.160;6.736;2023-07-02T08:34:22;100715.63;;;16.69;61.03
79534;BME280;68982;52.160;6.736;2023-07-02T08:36:47;100708.16;;;16.64;60.50
79534;BME280;68982;52.160;6.736;2023-07-02T08:39:13;100715.75;;;16.92;58.40
79534;BME280;68982;52.160;6.736;2023-07-02T08:41:45;100716.63;;;17.40;60.54
79534;BME280;68982;52.160;6.736;2023-07-02T08:44:12;100702.75;;;17.53;57.67
79534;BME280;68982;52.160;6.736;2023-07-02T08:46:41;100711.88;;;17.94;56.76
79534;BME280;68982;52.160;6.736;2023-07-02T08:49:10;100721.56;;;17.78;58.05
79534;BME280;68982;52.160;6.736;2023-07-02T08:51:36;100723.00;;;17.69;59.13
79534;BME280;68982;52.160;6.736;2023-07-02T08:54:02;100712.31;;;17.79;57.92
79534;BME280;68982;52.160;6.736;2023-07-02T08:56:28;100725.84;;;18.38;57.93
79534;BME280;68982;52.160;6.736;2023-07-02T08:58:53;100731.25;;;18.21;54.63
79534;BME280;68982;52.160;6.736;2023-07-02T09:01:19;100724.53;;;18.12;56.67
79534;BME280;68982;52.160;6.736;2023-07-02T09:03:45;100731.25;;;18.21;57.18
79534;BME280;68982;52.160;6.736;2023-07-02T09:06:11;100726.47;;;18.29;57.66
79534;BME280;68982;52.160;6.736;2023-07-02T09:08:38;100721.03;;;18.57;56.17
79534;BME280;68982;52.160;6.736;2023-07-02T09:11:10;100729.41;;;18.68;56.39
79534;BME280;68982;52.160;6.736;2023-07-02T09:13:52;100719.19;;;18.46;53.53
79534;BME280;68982;52.160;6.736;2023-07-02T09:16:33;100725.44;;;18.75;54.11
79534;BME280;68982;52.160;6.736;2023-07-02T09:19:03;100725.59;;;18.40;53.79
79534;BME280;68982;52.160;6.736;2023-07-02T09:21:44;100731.44;;;18.32;55.13
79534;BME280;68982;52.160;6.736;2023-07-02T09:24:16;100729.94;;;18.24;54.13
79534;BME280;68982;52.160;6.736;2023-07-02T09:26:52;100730.38;;;17.92;52.79
79534;BME280;68982;52.160;6.736;2023-07-02T09:29:26;100736.28;;;18.01;53.53
79534;BME280;68982;52.160;6.736;2023-07-02T09:31:54;100735.66;;;18.11;53.12
79534;BME280;68982;52.160;6.736;2023-07-02T09:34:20;100735.66;;;18.51;50.75
79534;BME280;68982;52.160;6.736;2023-07-02T09:36:51;100733.41;;;18.77;50.07
79534;BME280;68982;52.160;6.736;2023-07-02T09:39:24;100731.44;;;18.60;49.86
79534;BME280;68982;52.160;6.736;2023-07-02T09:41:50;100738.66;;;18.38;49.06
79534;BME280;68982;52.160;6.736;2023-07-02T09:44:17;100749.28;;;18.22;49.53
79534;BME280;68982;52.160;6.736;2023-07-02T09:46:47;100753.44;;;18.13;51.82
79534;BME280;68982;52.160;6.736;2023-07-02T09:49:16;100749.06;;;18.12;50.45
79534;BME280;68982;52.160;6.736;2023-07-02T09:51:43;100741.50;;;17.91;52.15
79534;BME280;68982;52.160;6.736;2023-07-02T09:54:10;100737.91;;;18.54;51.89
79534;BME280;68982;52.160;6.736;2023-07-02T09:56:35;100745.03;;;18.84;49.01
79534;BME280;68982;52.160;6.736;2023-07-02T09:59:01;100745.59;;;18.57;49.01
79534;BME280;68982;52.160;6.736;2023-07-02T10:01:26;100751.41;;;18.20;51.06
79534;BME280;68982;52.160;6.736;2023-07-02T10:03:52;100741.75;;;17.89;50.03
79534;BME280;68982;52.160;6.736;2023-07-02T10:06:17;100749.66;;;18.02;51.27
79534;BME280;68982;52.160;6.736;2023-07-02T10:08:53;100755.66;;;17.88;49.64
79534;BME280;68982;52.160;6.736;2023-07-02T10:11:19;100770.94;;;17.89;48.83
79534;BME280;68982;52.160;6.736;2023-07-02T10:13:44;100766.06;;;18.43;48.75
79534;BME280;68982;52.160;6.736;2023-07-02T10:16:09;100755.72;;;18.74;47.18
79534;BME280;68982;52.160;6.736;2023-07-02T10:18:35;100757.41;;;19.03;48.51
79534;BME280;68982;52.160;6.736;2023-07-02T10:21:12;100755.84;;;19.24;44.66
79534;BME280;68982;52.160;6.736;2023-07-02T10:23:38;100763.13;;;19.02;47.72
79534;BME280;68982;52.160;6.736;2023-07-02T10:26:29;100765.13;;;19.23;47.30
79534;BME280;68982;52.160;6.736;2023-07-02T10:28:58;100762.88;;;19.37;46.39
79534;BME280;68982;52.160;6.736;2023-07-02T10:31:24;100759.16;;;19.43;46.37
79534;BME280;68982;52.160;6.736;2023-07-02T10:33:50;100762.19;;;18.96;46.02
79534;BME280;68982;52.160;6.736;2023-07-02T10:36:23;100757.88;;;18.83;47.08
79534;BME280;68982;52.160;6.736;2023-07-02T10:38:49;100761.22;;;19.36;46.35
79534;BME280;68982;52.160;6.736;2023-07-02T10:41:26;100756.44;;;19.43;46.26
79534;BME280;68982;52.160;6.736;2023-07-02T10:43:52;100770.59;;;19.57;45.10
79534;BME280;68982;52.160;6.736;2023-07-02T10:46:21;100767.19;;;19.50;42.59
79534;BME280;68982;52.160;6.736;2023-07-02T10:48:54;100762.56;;;19.51;44.06
79534;BME280;68982;52.160;6.736;2023-07-02T10:51:21;100758.81;;;19.57;43.67
79534;BME280;68982;52.160;6.736;2023-07-02T10:53:56;100759.06;;;20.11;44.49
79534;BME280;68982;52.160;6.736;2023-07-02T10:56:22;100763.81;;;20.21;42.50
79534;BME280;68982;52.160;6.736;2023-07-02T10:58:48;100764.91;;;20.42;42.08
79534;BME280;68982;52.160;6.736;2023-07-02T11:01:25;100760.47;;;20.14;39.29
79534;BME280;68982;52.160;6.736;2023-07-02T11:03:58;100765.94;;;20.36;42.34
79534;BME280;68982;52.160;6.736;2023-07-02T11:06:25;100766.06;;;20.24;40.98
79534;BME280;68982;52.160;6.736;2023-07-02T11:08:50;100749.38;;;19.81;41.54
79534;BME280;68982;52.160;6.736;2023-07-02T11:11:16;100770.50;;;19.69;42.29
79534;BME280;68982;52.160;6.736;2023-07-02T11:13:46;100768.25;;;19.49;41.94
79534;BME280;68982;52.160;6.736;2023-07-02T11:16:28;100757.06;;;19.67;41.11
79534;BME280;68982;52.160;6.736;2023-07-02T11:19:06;100771.84;;;19.83;41.91
79534;BME280;68982;52.160;6.736;2023-07-02T11:21:35;100769.38;;;20.04;41.66
79534;BME280;68982;52.160;6.736;2023-07-02T11:24:02;100770.06;;;19.60;40.97
79534;BME280;68982;52.160;6.736;2023-07-02T11:26:37;100780.13;;;19.38;41.68
79534;BME280;68982;52.160;6.736;2023-07-02T11:29:03;100773.50;;;19.17;42.20
79534;BME280;68982;52.160;6.736;2023-07-02T11:31:29;100781.25;;;19.08;43.59
79534;BME280;68982;52.160;6.736;2023-07-02T11:33:54;100777.16;;;19.39;43.09
79534;BME280;68982;52.160;6.736;2023-07-02T11:36:21;100774.78;;;19.65;40.27
79534;BME280;68982;52.160;6.736;2023-07-02T11:38:49;100774.47;;;20.17;42.68
79534;BME280;68982;52.160;6.736;2023-07-02T11:41:15;100774.69;;;19.94;41.39
79534;BME280;68982;52.160;6.736;2023-07-02T11:43:41;100776.13;;;19.62;41.81
79534;BME280;68982;52.160;6.736;2023-07-02T11:46:06;100790.47;;;19.86;42.90
79534;BME280;68982;52.160;6.736;2023-07-02T11:48:31;100775.06;;;20.41;41.73
79534;BME280;68982;52.160;6.736;2023-07-02T11:50:57;100777.66;;;20.53;42.29
79534;BME280;68982;52.160;6.736;2023-07-02T11:53:22;100769.00;;;20.39;42.12
79534;BME280;68982;52.160;6.736;2023-07-02T11:55:47;100785.47;;;20.61;42.57
79534;BME280;68982;52.160;6.736;2023-07-02T11:58:13;100791.09;;;20.11;40.96
79534;BME280;68982;52.160;6.736;2023-07-02T12:00:38;100784.47;;;20.06;41.32
79534;BME280;68982;52.160;6.736;2023-07-02T12:03:03;100773.13;;;19.98;41.88
79534;BME280;68982;52.160;6.736;2023-07-02T12:05:29;100788.34;;;20.11;39.53
79534;BME280;68982;52.160;6.736;2023-07-02T12:07:54;100788.34;;;20.11;40.23
79534;BME280;68982;52.160;6.736;2023-07-02T12:10:20;100786.16;;;19.91;40.85
79534;BME280;68982;52.160;6.736;2023-07-02T12:12:45;100787.66;;;19.81;40.84
79534;BME280;68982;52.160;6.736;2023-07-02T12:15:10;100788.47;;;19.99;40.82
79534;BME280;68982;52.160;6.736;2023-07-02T12:17:36;100790.13;;;20.00;40.54
79534;BME280;68982;52.160;6.736;2023-07-02T12:20:01;100790.38;;;19.64;40.18
79534;BME280;68982;52.160;6.736;2023-07-02T12:22:26;100795.94;;;19.70;42.40
79534;BME280;68982;52.160;6.736;2023-07-02T12:24:52;100794.59;;;19.38;40.67
79534;BME280;68982;52.160;6.736;2023-07-02T12:27:21;100792.72;;;20.12;40.25
79534;BME280;68982;52.160;6.736;2023-07-02T12:29:46;100790.00;;;20.56;39.11
79534;BME280;68982;52.160;6.736;2023-07-02T12:32:13;100778.22;;;20.77;37.33
79534;BME280;68982;52.160;6.736;2023-07-02T12:34:39;100791.88;;;20.28;38.39
79534;BME280;68982;52.160;6.736;2023-07-02T12:37:04;100795.38;;;19.84;40.77
79534;BME280;68982;52.160;6.736;2023-07-02T12:39:30;100802.91;;;19.43;39.46
79534;BME280;68982;52.160;6.736;2023-07-02T12:41:55;100794.28;;;19.52;40.01
79534;BME280;68982;52.160;6.736;2023-07-02T12:44:21;100803.22;;;19.47;41.24
79534;BME280;68982;52.160;6.736;2023-07-02T12:46:46;100804.81;;;19.26;40.44